Terminal Aerodrome Forecast
Issued by NWS Pocatello, ID

Home | Current Version | Previous Version | Text Only | Print | Product List | Glossary On
Versions: 1 2 3 4 5 6 7 8 9 10 11 12 13 14 15 16
000
FTUS45 KPIH 261100
TAFPIH
TAF
KPIH 261138Z 2612/2712 VRB06KT P6SM SCT008
      TEMPO 2612/2615 3SM BR BKN008
     FM261800 27008KT P6SM SCT050
     FM270300 21006KT P6SM SKC
      TEMPO 2710/2712 5SM BR SCT004=

USA.gov is the U.S. government's official web portal to all federal, state and local government web resources and services.